sensor_id;sensor_type;location;lat;lon;timestamp;P1;durP1;ratioP1;P2;durP2;ratioP2
40373;SDS011;26079;45.958;12.492;2022-10-16T00:01:26;43.05;;;31.42;;
40373;SDS011;26079;45.958;12.492;2022-10-16T00:03:54;46.65;;;31.23;;
40373;SDS011;26079;45.958;12.492;2022-10-16T00:06:21;41.80;;;32.53;;
40373;SDS011;26079;45.958;12.492;2022-10-16T00:08:47;37.17;;;30.23;;
40373;SDS011;26079;45.958;12.492;2022-10-16T00:11:16;44.15;;;32.92;;
40373;SDS011;26079;45.958;12.492;2022-10-16T00:13:47;43.78;;;32.70;;
40373;SDS011;26079;45.958;12.492;2022-10-16T00:16:14;43.50;;;30.90;;
40373;SDS011;26079;45.958;12.492;2022-10-16T00:18:40;39.17;;;31.50;;
40373;SDS011;26079;45.958;12.492;2022-10-16T00:21:11;40.40;;;30.70;;
40373;SDS011;26079;45.958;12.492;2022-10-16T00:23:39;35.97;;;30.03;;
40373;SDS011;26079;45.958;12.492;2022-10-16T00:26:06;41.42;;;32.05;;
40373;SDS011;26079;45.958;12.492;2022-10-16T00:28:35;41.08;;;31.02;;
40373;SDS011;26079;45.958;12.492;2022-10-16T00:31:05;43.28;;;31.65;;
40373;SDS011;26079;45.958;12.492;2022-10-16T00:33:33;52.95;;;31.90;;
40373;SDS011;26079;45.958;12.492;2022-10-16T00:35:59;44.63;;;31.90;;
40373;SDS011;26079;45.958;12.492;2022-10-16T00:38:26;45.95;;;32.65;;
40373;SDS011;26079;45.958;12.492;2022-10-16T00:40:52;41.88;;;31.67;;
40373;SDS011;26079;45.958;12.492;2022-10-16T00:43:35;35.38;;;29.00;;
40373;SDS011;26079;45.958;12.492;2022-10-16T00:48:27;37.42;;;28.42;;
40373;SDS011;26079;45.958;12.492;2022-10-16T00:50:54;39.58;;;29.63;;
40373;SDS011;26079;45.958;12.492;2022-10-16T00:53:20;43.60;;;30.75;;
40373;SDS011;26079;45.958;12.492;2022-10-16T00:55:47;40.92;;;31.10;;
40373;SDS011;26079;45.958;12.492;2022-10-16T00:58:12;36.90;;;30.33;;
40373;SDS011;26079;45.958;12.492;2022-10-16T01:00:38;43.20;;;31.75;;
40373;SDS011;26079;45.958;12.492;2022-10-16T01:03:21;48.47;;;30.88;;
40373;SDS011;26079;45.958;12.492;2022-10-16T01:06:04;41.03;;;31.02;;
40373;SDS011;26079;45.958;12.492;2022-10-16T01:08:50;39.42;;;30.08;;
40373;SDS011;26079;45.958;12.492;2022-10-16T01:14:11;41.67;;;30.92;;
40373;SDS011;26079;45.958;12.492;2022-10-16T01:17:10;41.20;;;32.75;;
40373;SDS011;26079;45.958;12.492;2022-10-16T01:25:12;42.17;;;29.88;;
40373;SDS011;26079;45.958;12.492;2022-10-16T01:27:48;42.70;;;31.65;;
40373;SDS011;26079;45.958;12.492;2022-10-16T01:30:23;37.25;;;31.75;;
40373;SDS011;26079;45.958;12.492;2022-10-16T01:33:08;42.20;;;31.00;;
40373;SDS011;26079;45.958;12.492;2022-10-16T01:35:38;43.85;;;31.80;;
40373;SDS011;26079;45.958;12.492;2022-10-16T01:38:34;41.47;;;31.75;;
40373;SDS011;26079;45.958;12.492;2022-10-16T01:43:47;39.83;;;30.45;;
40373;SDS011;26079;45.958;12.492;2022-10-16T01:46:18;40.63;;;29.08;;
40373;SDS011;26079;45.958;12.492;2022-10-16T01:48:47;38.50;;;30.88;;
40373;SDS011;26079;45.958;12.492;2022-10-16T01:51:15;45.80;;;31.92;;
40373;SDS011;26079;45.958;12.492;2022-10-16T01:53:43;43.88;;;28.88;;
40373;SDS011;26079;45.958;12.492;2022-10-16T01:56:13;40.03;;;28.98;;
40373;SDS011;26079;45.958;12.492;2022-10-16T01:58:44;44.83;;;31.23;;
40373;SDS011;26079;45.958;12.492;2022-10-16T02:01:15;40.40;;;32.47;;
40373;SDS011;26079;45.958;12.492;2022-10-16T02:03:43;49.85;;;33.63;;
40373;SDS011;26079;45.958;12.492;2022-10-16T02:06:11;44.10;;;34.35;;
40373;SDS011;26079;45.958;12.492;2022-10-16T02:08:37;48.30;;;31.60;;
40373;SDS011;26079;45.958;12.492;2022-10-16T02:11:05;39.05;;;30.70;;
40373;SDS011;26079;45.958;12.492;2022-10-16T02:13:38;44.08;;;33.22;;
40373;SDS011;26079;45.958;12.492;2022-10-16T02:16:10;39.17;;;31.00;;
40373;SDS011;26079;45.958;12.492;2022-10-16T02:18:37;43.08;;;31.92;;
40373;SDS011;26079;45.958;12.492;2022-10-16T02:21:17;40.70;;;31.48;;
40373;SDS011;26079;45.958;12.492;2022-10-16T02:24:01;41.67;;;30.00;;
40373;SDS011;26079;45.958;12.492;2022-10-16T02:26:36;46.25;;;28.98;;
40373;SDS011;26079;45.958;12.492;2022-10-16T02:29:10;42.10;;;32.40;;
40373;SDS011;26079;45.958;12.492;2022-10-16T02:31:41;37.70;;;29.67;;
40373;SDS011;26079;45.958;12.492;2022-10-16T02:34:09;40.35;;;30.30;;
40373;SDS011;26079;45.958;12.492;2022-10-16T02:36:37;39.92;;;29.80;;
40373;SDS011;26079;45.958;12.492;2022-10-16T02:39:05;43.38;;;30.02;;
40373;SDS011;26079;45.958;12.492;2022-10-16T02:41:33;36.45;;;30.55;;
40373;SDS011;26079;45.958;12.492;2022-10-16T02:43:59;45.55;;;31.42;;
40373;SDS011;26079;45.958;12.492;2022-10-16T02:46:24;38.30;;;27.98;;
40373;SDS011;26079;45.958;12.492;2022-10-16T02:48:50;39.03;;;30.02;;
40373;SDS011;26079;45.958;12.492;2022-10-16T02:51:16;39.85;;;30.60;;
40373;SDS011;26079;45.958;12.492;2022-10-16T02:53:42;41.80;;;30.33;;
40373;SDS011;26079;45.958;12.492;2022-10-16T02:56:08;41.15;;;30.83;;
40373;SDS011;26079;45.958;12.492;2022-10-16T02:58:34;39.55;;;30.33;;
40373;SDS011;26079;45.958;12.492;2022-10-16T03:01:00;46.42;;;31.00;;
40373;SDS011;26079;45.958;12.492;2022-10-16T03:03:26;39.83;;;31.90;;
40373;SDS011;26079;45.958;12.492;2022-10-16T03:05:52;42.10;;;31.45;;
40373;SDS011;26079;45.958;12.492;2022-10-16T03:08:18;43.00;;;29.55;;
40373;SDS011;26079;45.958;12.492;2022-10-16T03:10:48;42.97;;;30.33;;
40373;SDS011;26079;45.958;12.492;2022-10-16T03:13:15;50.53;;;32.08;;
40373;SDS011;26079;45.958;12.492;2022-10-16T03:15:40;42.85;;;32.10;;
40373;SDS011;26079;45.958;12.492;2022-10-16T03:18:06;40.95;;;30.90;;
40373;SDS011;26079;45.958;12.492;2022-10-16T03:20:33;37.20;;;28.88;;
40373;SDS011;26079;45.958;12.492;2022-10-16T03:22:58;38.60;;;29.95;;
40373;SDS011;26079;45.958;12.492;2022-10-16T03:25:24;35.65;;;28.90;;
40373;SDS011;26079;45.958;12.492;2022-10-16T03:27:50;37.60;;;29.60;;
40373;SDS011;26079;45.958;12.492;2022-10-16T03:30:16;39.30;;;29.08;;
40373;SDS011;26079;45.958;12.492;2022-10-16T03:32:43;38.42;;;30.27;;
40373;SDS011;26079;45.958;12.492;2022-10-16T03:35:09;39.92;;;31.25;;
40373;SDS011;26079;45.958;12.492;2022-10-16T03:37:37;40.38;;;31.40;;
40373;SDS011;26079;45.958;12.492;2022-10-16T03:40:03;39.30;;;29.65;;
40373;SDS011;26079;45.958;12.492;2022-10-16T03:42:29;46.70;;;32.45;;
40373;SDS011;26079;45.958;12.492;2022-10-16T03:44:55;40.20;;;30.73;;
40373;SDS011;26079;45.958;12.492;2022-10-16T03:47:20;42.88;;;31.10;;
40373;SDS011;26079;45.958;12.492;2022-10-16T03:49:48;37.00;;;28.92;;
40373;SDS011;26079;45.958;12.492;2022-10-16T03:52:15;38.78;;;30.60;;
40373;SDS011;26079;45.958;12.492;2022-10-16T03:54:42;46.22;;;30.30;;
40373;SDS011;26079;45.958;12.492;2022-10-16T03:57:07;43.83;;;32.00;;
40373;SDS011;26079;45.958;12.492;2022-10-16T03:59:33;42.17;;;30.60;;
40373;SDS011;26079;45.958;12.492;2022-10-16T04:01:59;45.08;;;32.83;;
40373;SDS011;26079;45.958;12.492;2022-10-16T04:04:25;41.03;;;30.45;;
40373;SDS011;26079;45.958;12.492;2022-10-16T04:06:51;38.75;;;31.20;;
40373;SDS011;26079;45.958;12.492;2022-10-16T04:09:16;47.13;;;33.85;;
40373;SDS011;26079;45.958;12.492;2022-10-16T04:11:42;45.70;;;32.20;;
40373;SDS011;26079;45.958;12.492;2022-10-16T04:14:08;44.47;;;31.33;;
40373;SDS011;26079;45.958;12.492;2022-10-16T04:16:34;43.72;;;30.58;;
40373;SDS011;26079;45.958;12.492;2022-10-16T04:19:00;47.10;;;30.13;;
40373;SDS011;26079;45.958;12.492;2022-10-16T04:21:26;44.25;;;31.70;;
40373;SDS011;26079;45.958;12.492;2022-10-16T04:23:52;44.78;;;31.52;;
40373;SDS011;26079;45.958;12.492;2022-10-16T04:26:17;43.60;;;30.63;;
40373;SDS011;26079;45.958;12.492;2022-10-16T04:28:43;41.20;;;29.77;;
40373;SDS011;26079;45.958;12.492;2022-10-16T04:31:09;43.88;;;29.92;;
40373;SDS011;26079;45.958;12.492;2022-10-16T04:33:35;41.75;;;29.40;;
40373;SDS011;26079;45.958;12.492;2022-10-16T04:36:02;41.53;;;30.00;;
40373;SDS011;26079;45.958;12.492;2022-10-16T04:38:28;48.15;;;31.45;;
40373;SDS011;26079;45.958;12.492;2022-10-16T04:40:54;42.38;;;31.10;;
40373;SDS011;26079;45.958;12.492;2022-10-16T04:43:21;46.20;;;31.10;;
40373;SDS011;26079;45.958;12.492;2022-10-16T04:45:46;52.45;;;30.70;;
40373;SDS011;26079;45.958;12.492;2022-10-16T04:48:13;40.03;;;30.98;;
40373;SDS011;26079;45.958;12.492;2022-10-16T04:50:38;42.45;;;29.88;;
40373;SDS011;26079;45.958;12.492;2022-10-16T04:53:05;43.63;;;32.08;;
40373;SDS011;26079;45.958;12.492;2022-10-16T04:55:32;46.38;;;31.55;;
40373;SDS011;26079;45.958;12.492;2022-10-16T04:57:58;39.38;;;29.35;;
40373;SDS011;26079;45.958;12.492;2022-10-16T05:00:24;46.22;;;32.97;;
40373;SDS011;26079;45.958;12.492;2022-10-16T05:02:50;47.33;;;31.67;;
40373;SDS011;26079;45.958;12.492;2022-10-16T05:05:16;45.25;;;31.17;;
40373;SDS011;26079;45.958;12.492;2022-10-16T05:07:44;42.30;;;30.20;;
40373;SDS011;26079;45.958;12.492;2022-10-16T05:10:10;44.85;;;31.40;;
40373;SDS011;26079;45.958;12.492;2022-10-16T05:12:36;49.92;;;32.45;;
40373;SDS011;26079;45.958;12.492;2022-10-16T05:15:02;41.47;;;30.52;;
40373;SDS011;26079;45.958;12.492;2022-10-16T05:17:28;45.13;;;32.33;;
40373;SDS011;26079;45.958;12.492;2022-10-16T05:19:54;43.28;;;30.75;;
40373;SDS011;26079;45.958;12.492;2022-10-16T05:22:21;46.03;;;32.33;;
40373;SDS011;26079;45.958;12.492;2022-10-16T05:24:47;42.35;;;31.42;;
40373;SDS011;26079;45.958;12.492;2022-10-16T05:27:13;44.67;;;31.75;;
40373;SDS011;26079;45.958;12.492;2022-10-16T05:29:44;44.92;;;30.58;;
40373;SDS011;26079;45.958;12.492;2022-10-16T05:32:14;42.17;;;31.35;;
40373;SDS011;26079;45.958;12.492;2022-10-16T05:34:41;39.25;;;31.05;;
40373;SDS011;26079;45.958;12.492;2022-10-16T05:37:07;48.40;;;31.70;;
40373;SDS011;26079;45.958;12.492;2022-10-16T05:39:34;44.38;;;31.50;;
40373;SDS011;26079;45.958;12.492;2022-10-16T05:41:59;40.20;;;30.92;;
40373;SDS011;26079;45.958;12.492;2022-10-16T05:44:25;46.13;;;29.67;;
40373;SDS011;26079;45.958;12.492;2022-10-16T05:46:51;46.53;;;32.20;;
40373;SDS011;26079;45.958;12.492;2022-10-16T05:49:18;40.80;;;29.67;;
40373;SDS011;26079;45.958;12.492;2022-10-16T05:51:43;42.30;;;30.02;;
40373;SDS011;26079;45.958;12.492;2022-10-16T05:54:09;41.15;;;29.73;;
40373;SDS011;26079;45.958;12.492;2022-10-16T05:56:35;40.40;;;29.17;;
40373;SDS011;26079;45.958;12.492;2022-10-16T05:59:02;42.10;;;29.48;;
40373;SDS011;26079;45.958;12.492;2022-10-16T06:01:28;43.05;;;31.08;;
40373;SDS011;26079;45.958;12.492;2022-10-16T06:03:56;38.58;;;29.60;;
40373;SDS011;26079;45.958;12.492;2022-10-16T06:06:23;43.78;;;30.25;;
40373;SDS011;26079;45.958;12.492;2022-10-16T06:08:51;38.55;;;28.85;;
40373;SDS011;26079;45.958;12.492;2022-10-16T06:11:22;48.13;;;29.77;;
40373;SDS011;26079;45.958;12.492;2022-10-16T06:13:54;35.38;;;28.95;;
40373;SDS011;26079;45.958;12.492;2022-10-16T06:16:22;41.55;;;29.23;;
40373;SDS011;26079;45.958;12.492;2022-10-16T06:18:50;42.22;;;29.75;;
40373;SDS011;26079;45.958;12.492;2022-10-16T06:21:18;48.28;;;30.67;;
40373;SDS011;26079;45.958;12.492;2022-10-16T06:23:45;40.40;;;29.45;;
40373;SDS011;26079;45.958;12.492;2022-10-16T06:26:12;41.42;;;29.88;;
40373;SDS011;26079;45.958;12.492;2022-10-16T06:28:39;38.90;;;28.60;;
40373;SDS011;26079;45.958;12.492;2022-10-16T06:31:06;38.95;;;30.10;;
40373;SDS011;26079;45.958;12.492;2022-10-16T06:33:32;39.80;;;28.27;;
40373;SDS011;26079;45.958;12.492;2022-10-16T06:36:05;44.72;;;28.23;;
40373;SDS011;26079;45.958;12.492;2022-10-16T06:38:39;39.83;;;29.13;;
40373;SDS011;26079;45.958;12.492;2022-10-16T06:41:06;40.13;;;29.58;;
40373;SDS011;26079;45.958;12.492;2022-10-16T06:43:33;36.75;;;28.38;;
40373;SDS011;26079;45.958;12.492;2022-10-16T06:46:02;44.03;;;29.65;;
40373;SDS011;26079;45.958;12.492;2022-10-16T06:48:28;36.33;;;28.25;;
40373;SDS011;26079;45.958;12.492;2022-10-16T06:50:58;39.30;;;28.45;;
40373;SDS011;26079;45.958;12.492;2022-10-16T06:53:26;43.70;;;30.05;;
40373;SDS011;26079;45.958;12.492;2022-10-16T06:55:52;41.47;;;29.33;;
40373;SDS011;26079;45.958;12.492;2022-10-16T06:58:18;36.95;;;28.27;;
40373;SDS011;26079;45.958;12.492;2022-10-16T07:00:44;37.38;;;27.42;;
40373;SDS011;26079;45.958;12.492;2022-10-16T07:03:10;48.55;;;29.90;;
40373;SDS011;26079;45.958;12.492;2022-10-16T07:05:40;38.85;;;29.20;;
40373;SDS011;26079;45.958;12.492;2022-10-16T07:08:06;41.08;;;28.65;;
40373;SDS011;26079;45.958;12.492;2022-10-16T07:10:32;38.58;;;28.67;;
40373;SDS011;26079;45.958;12.492;2022-10-16T07:12:58;47.40;;;29.90;;
40373;SDS011;26079;45.958;12.492;2022-10-16T07:15:24;42.00;;;30.38;;
40373;SDS011;26079;45.958;12.492;2022-10-16T07:17:50;41.13;;;30.65;;
40373;SDS011;26079;45.958;12.492;2022-10-16T07:20:16;41.25;;;30.05;;
40373;SDS011;26079;45.958;12.492;2022-10-16T07:22:42;43.60;;;29.48;;
40373;SDS011;26079;45.958;12.492;2022-10-16T07:25:08;44.00;;;30.02;;
40373;SDS011;26079;45.958;12.492;2022-10-16T07:27:34;36.67;;;29.23;;
40373;SDS011;26079;45.958;12.492;2022-10-16T07:30:00;37.33;;;29.83;;
40373;SDS011;26079;45.958;12.492;2022-10-16T07:32:26;42.10;;;29.23;;
40373;SDS011;26079;45.958;12.492;2022-10-16T07:34:52;43.55;;;29.98;;
40373;SDS011;26079;45.958;12.492;2022-10-16T07:37:18;38.90;;;30.42;;
40373;SDS011;26079;45.958;12.492;2022-10-16T07:39:44;40.75;;;28.98;;
40373;SDS011;26079;45.958;12.492;2022-10-16T07:42:10;42.90;;;30.52;;
40373;SDS011;26079;45.958;12.492;2022-10-16T07:44:36;36.58;;;28.88;;
40373;SDS011;26079;45.958;12.492;2022-10-16T07:47:02;45.80;;;28.65;;
40373;SDS011;26079;45.958;12.492;2022-10-16T07:49:27;44.35;;;30.00;;
40373;SDS011;26079;45.958;12.492;2022-10-16T07:51:53;39.15;;;29.65;;
40373;SDS011;26079;45.958;12.492;2022-10-16T07:54:19;44.70;;;28.38;;
40373;SDS011;26079;45.958;12.492;2022-10-16T07:56:45;37.90;;;29.58;;
40373;SDS011;26079;45.958;12.492;2022-10-16T07:59:11;39.10;;;30.77;;
40373;SDS011;26079;45.958;12.492;2022-10-16T08:01:37;39.92;;;29.92;;
40373;SDS011;26079;45.958;12.492;2022-10-16T08:04:03;42.55;;;30.73;;
40373;SDS011;26079;45.958;12.492;2022-10-16T08:06:28;45.78;;;29.60;;
40373;SDS011;26079;45.958;12.492;2022-10-16T08:08:55;38.45;;;29.92;;
40373;SDS011;26079;45.958;12.492;2022-10-16T08:11:21;42.85;;;30.40;;
40373;SDS011;26079;45.958;12.492;2022-10-16T08:13:48;38.15;;;29.70;;
40373;SDS011;26079;45.958;12.492;2022-10-16T08:16:13;39.65;;;29.70;;
40373;SDS011;26079;45.958;12.492;2022-10-16T08:18:40;38.75;;;30.10;;
40373;SDS011;26079;45.958;12.492;2022-10-16T08:21:06;43.22;;;29.02;;
40373;SDS011;26079;45.958;12.492;2022-10-16T08:23:36;41.55;;;28.17;;
40373;SDS011;26079;45.958;12.492;2022-10-16T08:26:04;40.17;;;29.58;;
40373;SDS011;26079;45.958;12.492;2022-10-16T08:28:30;42.40;;;31.20;;
40373;SDS011;26079;45.958;12.492;2022-10-16T08:30:56;38.20;;;29.98;;
40373;SDS011;26079;45.958;12.492;2022-10-16T08:33:40;41.30;;;30.75;;
40373;SDS011;26079;45.958;12.492;2022-10-16T08:36:09;44.13;;;30.23;;
40373;SDS011;26079;45.958;12.492;2022-10-16T08:38:36;37.92;;;28.52;;
40373;SDS011;26079;45.958;12.492;2022-10-16T08:48:59;41.80;;;32.90;;
40373;SDS011;26079;45.958;12.492;2022-10-16T08:51:29;44.83;;;34.05;;
40373;SDS011;26079;45.958;12.492;2022-10-16T08:54:03;43.97;;;31.98;;
40373;SDS011;26079;45.958;12.492;2022-10-16T08:56:31;46.25;;;30.70;;
40373;SDS011;26079;45.958;12.492;2022-10-16T08:58:58;42.60;;;29.95;;
40373;SDS011;26079;45.958;12.492;2022-10-16T09:01:29;48.72;;;32.88;;
40373;SDS011;26079;45.958;12.492;2022-10-16T09:04:26;55.27;;;33.47;;
40373;SDS011;26079;45.958;12.492;2022-10-16T09:07:01;39.85;;;31.30;;
40373;SDS011;26079;45.958;12.492;2022-10-16T09:09:39;44.55;;;32.30;;
40373;SDS011;26079;45.958;12.492;2022-10-16T09:20:25;52.22;;;37.00;;
40373;SDS011;26079;45.958;12.492;2022-10-16T09:23:07;48.25;;;33.80;;
40373;SDS011;26079;45.958;12.492;2022-10-16T09:25:37;53.72;;;35.70;;
40373;SDS011;26079;45.958;12.492;2022-10-16T09:28:07;51.22;;;35.58;;
40373;SDS011;26079;45.958;12.492;2022-10-16T09:30:34;48.58;;;36.00;;
40373;SDS011;26079;45.958;12.492;2022-10-16T09:32:59;42.10;;;32.35;;
40373;SDS011;26079;45.958;12.492;2022-10-16T09:35:37;47.65;;;34.08;;
40373;SDS011;26079;45.958;12.492;2022-10-16T09:38:05;54.45;;;34.35;;
40373;SDS011;26079;45.958;12.492;2022-10-16T09:40:32;50.38;;;34.28;;
40373;SDS011;26079;45.958;12.492;2022-10-16T09:43:19;54.38;;;36.45;;
40373;SDS011;26079;45.958;12.492;2022-10-16T09:45:59;43.17;;;32.13;;
40373;SDS011;26079;45.958;12.492;2022-10-16T09:48:30;51.75;;;33.35;;
40373;SDS011;26079;45.958;12.492;2022-10-16T09:51:06;51.35;;;34.90;;
40373;SDS011;26079;45.958;12.492;2022-10-16T09:53:44;48.10;;;36.67;;
40373;SDS011;26079;45.958;12.492;2022-10-16T09:56:20;52.65;;;37.38;;
40373;SDS011;26079;45.958;12.492;2022-10-16T09:58:50;57.28;;;36.80;;
40373;SDS011;26079;45.958;12.492;2022-10-16T10:01:17;49.42;;;35.20;;
40373;SDS011;26079;45.958;12.492;2022-10-16T10:03:44;55.47;;;35.88;;
40373;SDS011;26079;45.958;12.492;2022-10-16T10:06:21;59.45;;;37.65;;
40373;SDS011;26079;45.958;12.492;2022-10-16T10:08:56;49.88;;;36.42;;
40373;SDS011;26079;45.958;12.492;2022-10-16T10:11:37;60.03;;;40.53;;
40373;SDS011;26079;45.958;12.492;2022-10-16T10:14:06;64.70;;;39.97;;
40373;SDS011;26079;45.958;12.492;2022-10-16T10:16:40;54.67;;;39.28;;
40373;SDS011;26079;45.958;12.492;2022-10-16T10:19:09;53.67;;;37.55;;
40373;SDS011;26079;45.958;12.492;2022-10-16T10:21:39;55.05;;;36.55;;
40373;SDS011;26079;45.958;12.492;2022-10-16T10:24:09;47.13;;;36.20;;
40373;SDS011;26079;45.958;12.492;2022-10-16T10:26:39;61.40;;;36.50;;
40373;SDS011;26079;45.958;12.492;2022-10-16T10:42:50;45.10;;;33.05;;
40373;SDS011;26079;45.958;12.492;2022-10-16T10:45:26;48.00;;;31.73;;
40373;SDS011;26079;45.958;12.492;2022-10-16T10:53:44;45.75;;;34.15;;
40373;SDS011;26079;45.958;12.492;2022-10-16T11:02:10;44.78;;;33.85;;
40373;SDS011;26079;45.958;12.492;2022-10-16T11:07:33;46.63;;;35.03;;
40373;SDS011;26079;45.958;12.492;2022-10-16T11:10:11;46.40;;;34.28;;
40373;SDS011;26079;45.958;12.492;2022-10-16T11:12:46;132.38;;;76.47;;
40373;SDS011;26079;45.958;12.492;2022-10-16T11:15:27;149.80;;;110.35;;
40373;SDS011;26079;45.958;12.492;2022-10-16T11:18:03;87.50;;;58.15;;
40373;SDS011;26079;45.958;12.492;2022-10-16T11:20:43;54.10;;;40.03;;
40373;SDS011;26079;45.958;12.492;2022-10-16T11:23:17;47.58;;;33.33;;
40373;SDS011;26079;45.958;12.492;2022-10-16T11:26:05;58.53;;;38.33;;
40373;SDS011;26079;45.958;12.492;2022-10-16T11:28:45;49.42;;;31.40;;
40373;SDS011;26079;45.958;12.492;2022-10-16T11:31:16;42.92;;;33.47;;
40373;SDS011;26079;45.958;12.492;2022-10-16T11:33:55;41.45;;;30.70;;
40373;SDS011;26079;45.958;12.492;2022-10-16T11:39:29;39.30;;;30.58;;
40373;SDS011;26079;45.958;12.492;2022-10-16T11:41:59;43.83;;;30.58;;
40373;SDS011;26079;45.958;12.492;2022-10-16T11:47:40;48.10;;;30.83;;
40373;SDS011;26079;45.958;12.492;2022-10-16T11:50:14;43.38;;;32.08;;
40373;SDS011;26079;45.958;12.492;2022-10-16T11:56:03;42.95;;;29.85;;
40373;SDS011;26079;45.958;12.492;2022-10-16T12:08:48;39.55;;;29.23;;
40373;SDS011;26079;45.958;12.492;2022-10-16T12:16:32;39.70;;;31.23;;
40373;SDS011;26079;45.958;12.492;2022-10-16T12:19:14;39.28;;;30.30;;
40373;SDS011;26079;45.958;12.492;2022-10-16T12:21:41;44.65;;;31.33;;
40373;SDS011;26079;45.958;12.492;2022-10-16T12:26:52;35.38;;;27.63;;
40373;SDS011;26079;45.958;12.492;2022-10-16T12:31:45;47.75;;;29.48;;
40373;SDS011;26079;45.958;12.492;2022-10-16T12:34:14;37.53;;;29.33;;
40373;SDS011;26079;45.958;12.492;2022-10-16T12:36:47;43.95;;;28.02;;
40373;SDS011;26079;45.958;12.492;2022-10-16T12:39:46;45.08;;;28.95;;
40373;SDS011;26079;45.958;12.492;2022-10-16T12:42:19;44.20;;;29.58;;
40373;SDS011;26079;45.958;12.492;2022-10-16T12:44:58;35.70;;;29.50;;
40373;SDS011;26079;45.958;12.492;2022-10-16T12:49:56;35.50;;;29.67;;
40373;SDS011;26079;45.958;12.492;2022-10-16T12:55:05;42.60;;;29.73;;
40373;SDS011;26079;45.958;12.492;2022-10-16T13:06:38;38.85;;;29.00;;
40373;SDS011;26079;45.958;12.492;2022-10-16T13:09:25;43.83;;;31.35;;
40373;SDS011;26079;45.958;12.492;2022-10-16T13:12:07;37.22;;;27.77;;
40373;SDS011;26079;45.958;12.492;2022-10-16T13:29:02;38.50;;;29.48;;
40373;SDS011;26079;45.958;12.492;2022-10-16T13:31:29;39.25;;;30.33;;
40373;SDS011;26079;45.958;12.492;2022-10-16T13:33:56;44.28;;;31.58;;
40373;SDS011;26079;45.958;12.492;2022-10-16T13:36:28;38.75;;;29.80;;
40373;SDS011;26079;45.958;12.492;2022-10-16T13:41:45;38.65;;;30.42;;
40373;SDS011;26079;45.958;12.492;2022-10-16T13:44:13;43.88;;;31.92;;
40373;SDS011;26079;45.958;12.492;2022-10-16T13:46:43;37.78;;;31.00;;
40373;SDS011;26079;45.958;12.492;2022-10-16T13:49:13;36.03;;;28.80;;
40373;SDS011;26079;45.958;12.492;2022-10-16T13:51:53;38.75;;;30.65;;
40373;SDS011;26079;45.958;12.492;2022-10-16T13:54:20;39.22;;;30.17;;
40373;SDS011;26079;45.958;12.492;2022-10-16T13:56:46;43.50;;;32.17;;
40373;SDS011;26079;45.958;12.492;2022-10-16T13:59:25;44.60;;;30.83;;
40373;SDS011;26079;45.958;12.492;2022-10-16T14:01:57;38.60;;;29.73;;
40373;SDS011;26079;45.958;12.492;2022-10-16T14:04:31;39.55;;;32.30;;
40373;SDS011;26079;45.958;12.492;2022-10-16T14:06:58;48.70;;;34.03;;
40373;SDS011;26079;45.958;12.492;2022-10-16T14:09:29;48.85;;;33.78;;
40373;SDS011;26079;45.958;12.492;2022-10-16T14:12:29;40.03;;;30.25;;
40373;SDS011;26079;45.958;12.492;2022-10-16T14:14:50;44.55;;;31.83;;
40373;SDS011;26079;45.958;12.492;2022-10-16T14:17:25;40.05;;;30.55;;
40373;SDS011;26079;45.958;12.492;2022-10-16T14:19:53;44.60;;;31.05;;
40373;SDS011;26079;45.958;12.492;2022-10-16T14:22:30;50.65;;;33.45;;
40373;SDS011;26079;45.958;12.492;2022-10-16T14:24:59;45.42;;;31.48;;
40373;SDS011;26079;45.958;12.492;2022-10-16T14:27:35;38.78;;;30.02;;
40373;SDS011;26079;45.958;12.492;2022-10-16T14:32:33;44.75;;;31.00;;
40373;SDS011;26079;45.958;12.492;2022-10-16T14:35:11;42.13;;;31.20;;
40373;SDS011;26079;45.958;12.492;2022-10-16T14:37:58;44.10;;;32.22;;
40373;SDS011;26079;45.958;12.492;2022-10-16T14:40:26;37.88;;;28.75;;
40373;SDS011;26079;45.958;12.492;2022-10-16T14:42:56;36.92;;;30.70;;
40373;SDS011;26079;45.958;12.492;2022-10-16T14:45:24;39.42;;;30.90;;
40373;SDS011;26079;45.958;12.492;2022-10-16T14:48:06;46.83;;;33.38;;
40373;SDS011;26079;45.958;12.492;2022-10-16T14:50:42;46.17;;;32.03;;
40373;SDS011;26079;45.958;12.492;2022-10-16T14:53:11;42.03;;;32.53;;
40373;SDS011;26079;45.958;12.492;2022-10-16T14:55:37;41.67;;;30.95;;
40373;SDS011;26079;45.958;12.492;2022-10-16T14:58:03;44.78;;;35.05;;
40373;SDS011;26079;45.958;12.492;2022-10-16T15:00:29;44.85;;;30.88;;
40373;SDS011;26079;45.958;12.492;2022-10-16T15:02:55;37.45;;;30.20;;
40373;SDS011;26079;45.958;12.492;2022-10-16T15:05:22;49.42;;;33.00;;
40373;SDS011;26079;45.958;12.492;2022-10-16T15:07:51;42.30;;;32.70;;
40373;SDS011;26079;45.958;12.492;2022-10-16T15:10:21;33.92;;;26.83;;
40373;SDS011;26079;45.958;12.492;2022-10-16T15:12:48;38.78;;;29.95;;
40373;SDS011;26079;45.958;12.492;2022-10-16T15:17:58;44.28;;;32.28;;
40373;SDS011;26079;45.958;12.492;2022-10-16T15:20:30;40.13;;;28.30;;
40373;SDS011;26079;45.958;12.492;2022-10-16T15:22:59;45.15;;;30.80;;
40373;SDS011;26079;45.958;12.492;2022-10-16T15:25:27;46.85;;;31.15;;
40373;SDS011;26079;45.958;12.492;2022-10-16T15:27:54;37.28;;;30.92;;
40373;SDS011;26079;45.958;12.492;2022-10-16T15:30:20;41.15;;;31.98;;
40373;SDS011;26079;45.958;12.492;2022-10-16T15:32:46;41.15;;;33.17;;
40373;SDS011;26079;45.958;12.492;2022-10-16T15:35:12;41.95;;;32.35;;
40373;SDS011;26079;45.958;12.492;2022-10-16T15:37:38;40.10;;;30.65;;
40373;SDS011;26079;45.958;12.492;2022-10-16T15:40:04;40.97;;;31.40;;
40373;SDS011;26079;45.958;12.492;2022-10-16T15:42:30;42.20;;;31.98;;
40373;SDS011;26079;45.958;12.492;2022-10-16T15:44:56;40.50;;;30.98;;
40373;SDS011;26079;45.958;12.492;2022-10-16T15:47:22;40.75;;;31.75;;
40373;SDS011;26079;45.958;12.492;2022-10-16T15:49:48;45.08;;;34.20;;
40373;SDS011;26079;45.958;12.492;2022-10-16T15:52:14;49.35;;;39.35;;
40373;SDS011;26079;45.958;12.492;2022-10-16T15:54:40;56.13;;;44.63;;
40373;SDS011;26079;45.958;12.492;2022-10-16T15:57:05;66.60;;;45.72;;
40373;SDS011;26079;45.958;12.492;2022-10-16T15:59:31;57.03;;;44.42;;
40373;SDS011;26079;45.958;12.492;2022-10-16T16:01:57;55.25;;;45.13;;
40373;SDS011;26079;45.958;12.492;2022-10-16T16:04:26;68.65;;;50.85;;
40373;SDS011;26079;45.958;12.492;2022-10-16T16:06:55;58.90;;;46.85;;
40373;SDS011;26079;45.958;12.492;2022-10-16T16:09:20;60.08;;;45.75;;
40373;SDS011;26079;45.958;12.492;2022-10-16T16:11:46;48.55;;;39.58;;
40373;SDS011;26079;45.958;12.492;2022-10-16T16:14:13;58.33;;;40.60;;
40373;SDS011;26079;45.958;12.492;2022-10-16T16:16:38;48.22;;;34.38;;
40373;SDS011;26079;45.958;12.492;2022-10-16T16:19:05;48.90;;;35.03;;
40373;SDS011;26079;45.958;12.492;2022-10-16T16:21:32;47.17;;;32.70;;
40373;SDS011;26079;45.958;12.492;2022-10-16T16:23:58;54.08;;;35.72;;
40373;SDS011;26079;45.958;12.492;2022-10-16T16:26:26;46.63;;;36.22;;